createdAt,value
2018-04-20T00:02:11.042Z,102348.71
2018-04-20T00:04:39.504Z,102345.78
2018-04-20T00:07:08.084Z,102342.59
2018-04-20T00:09:36.522Z,102343.57
2018-04-20T00:12:04.999Z,102344.38
2018-04-20T00:14:34.239Z,102342.64
2018-04-20T00:17:02.636Z,102340.05
2018-04-20T00:19:31.072Z,102333.80
2018-04-20T00:22:00.145Z,102333.69
2018-04-20T00:24:28.519Z,102333.74
2018-04-20T00:26:56.971Z,102326.73
2018-04-20T00:29:25.356Z,102321.95
2018-04-20T00:31:53.750Z,102314.86
2018-04-20T00:34:22.127Z,102311.23
2018-04-20T00:36:51.737Z,102314.18
2018-04-20T00:39:20.102Z,102307.57
2018-04-20T00:41:48.506Z,102303.81
2018-04-20T00:44:17.005Z,102304.91
2018-04-20T00:46:46.291Z,102306.94
2018-04-20T00:49:14.690Z,102306.69
2018-04-20T00:51:43.151Z,102298.04
2018-04-20T00:54:23.320Z,102294.98
2018-04-20T00:56:56.157Z,102291.70
2018-04-20T00:59:24.538Z,102294.66
2018-04-20T01:01:52.969Z,102298.58
2018-04-20T01:04:21.341Z,102297.91
2018-04-20T01:06:49.737Z,102301.36
2018-04-20T01:09:18.346Z,102293.00
2018-04-20T01:11:47.176Z,102286.86
2018-04-20T01:14:15.602Z,102289.19
2018-04-20T01:16:44.017Z,102291.09
2018-04-20T01:19:13.188Z,102290.22
2018-04-20T01:21:41.673Z,102288.59
2018-04-20T01:24:10.208Z,102287.04
2018-04-20T01:26:38.948Z,102281.21
2018-04-20T01:29:07.397Z,102284.08
2018-04-20T01:31:35.891Z,102282.91
2018-04-20T01:34:04.732Z,102272.91
2018-04-20T01:36:33.157Z,102272.20
2018-04-20T01:39:01.526Z,102270.83
2018-04-20T01:41:29.936Z,102270.39
2018-04-20T01:43:58.363Z,102267.03
2018-04-20T01:46:26.762Z,102259.91
2018-04-20T01:48:55.464Z,102262.62
2018-04-20T01:51:24.836Z,102256.91
2018-04-20T01:53:53.235Z,102255.36
2018-04-20T01:56:21.642Z,102249.64
2018-04-20T01:58:50.061Z,102252.83
2018-04-20T02:01:18.748Z,102248.47
2018-04-20T02:03:48.137Z,102250.33
2018-04-20T02:06:16.833Z,102244.63
2018-04-20T02:08:45.379Z,102246.20
2018-04-20T02:11:13.871Z,102243.13
2018-04-20T02:13:42.303Z,102243.30
2018-04-20T02:16:10.931Z,102238.66
2018-04-20T02:18:40.012Z,102235.03
2018-04-20T02:21:08.457Z,102234.72
2018-04-20T02:23:36.992Z,102228.27
2018-04-20T02:26:06.200Z,102230.96
2018-04-20T02:28:34.598Z,102226.28
2018-04-20T02:31:03.021Z,102222.27
2018-04-20T02:33:32.598Z,102218.09
2018-04-20T02:36:00.962Z,102221.70
2018-04-20T02:38:29.518Z,102220.96
2018-04-20T02:40:58.759Z,102217.46
2018-04-20T02:43:27.136Z,102209.60
2018-04-20T02:45:55.516Z,102208.31
2018-04-20T02:48:24.649Z,102204.46
2018-04-20T02:50:53.277Z,102200.59
2018-04-20T02:53:21.674Z,102201.84
2018-04-20T02:55:50.361Z,102197.26
2018-04-20T02:58:19.680Z,102188.94
2018-04-20T03:00:48.125Z,102189.97
2018-04-20T03:03:16.864Z,102187.38
2018-04-20T03:05:45.413Z,102189.87
2018-04-20T03:08:13.941Z,102182.91
2018-04-20T03:10:42.407Z,102183.68
2018-04-20T03:13:10.944Z,102179.34
2018-04-20T03:15:39.414Z,102178.39
2018-04-20T03:18:08.155Z,102174.78
2018-04-20T03:20:36.701Z,102165.84
2018-04-20T03:23:05.196Z,102160.67
2018-04-20T03:25:33.812Z,102147.95
2018-04-20T03:28:02.283Z,102157.81
2018-04-20T03:30:30.695Z,102146.91
2018-04-20T03:32:59.587Z,102145.25
2018-04-20T03:35:27.946Z,102147.29
2018-04-20T03:37:57.295Z,102142.81
2018-04-20T03:40:26.828Z,102137.59
2018-04-20T03:42:55.235Z,102134.64
2018-04-20T03:45:23.611Z,102137.70
2018-04-20T03:47:52.342Z,102131.66
2018-04-20T03:50:20.723Z,102131.11
2018-04-20T03:52:50.037Z,102120.82
2018-04-20T03:55:19.289Z,102116.34
2018-04-20T03:57:47.728Z,102116.21
2018-04-20T04:00:16.209Z,102112.68
2018-04-20T04:02:44.830Z,102113.77
2018-04-20T04:05:13.212Z,102107.16
2018-04-20T04:07:41.698Z,102105.03
2018-04-20T04:10:10.668Z,102105.09
2018-04-20T04:12:39.309Z,102101.05
2018-04-20T04:15:07.757Z,102104.71
2018-04-20T04:17:48.061Z,102100.73
2018-04-20T04:20:28.245Z,102103.11
2018-04-20T04:23:08.463Z,102103.31
2018-04-20T04:25:48.737Z,102097.48
2018-04-20T04:28:27.450Z,102102.31
2018-04-20T04:30:55.837Z,102101.39
2018-04-20T04:33:24.240Z,102093.63
2018-04-20T04:35:53.518Z,102092.76
2018-04-20T04:38:21.884Z,102092.53
2018-04-20T04:40:50.261Z,102083.59
2018-04-20T04:43:18.773Z,102079.55
2018-04-20T04:45:48.400Z,102078.74
2018-04-20T04:48:16.818Z,102076.16
2018-04-20T04:50:45.348Z,102070.23
2018-04-20T04:53:13.842Z,102064.73
2018-04-20T04:55:42.265Z,102069.12
2018-04-20T04:58:10.800Z,102062.47
2018-04-20T05:00:39.271Z,102053.41
2018-04-20T05:03:07.710Z,102055.61
2018-04-20T05:05:36.191Z,102055.44
2018-04-20T05:08:04.884Z,102052.31
2018-04-20T05:10:33.277Z,102047.58
2018-04-20T05:13:01.762Z,102043.80
2018-04-20T05:15:30.287Z,102035.91
2018-04-20T05:17:58.645Z,102035.59
2018-04-20T05:20:27.536Z,102041.84
2018-04-20T05:22:56.057Z,102031.19
2018-04-20T05:25:24.621Z,102032.53
2018-04-20T05:27:53.221Z,102027.16
2018-04-20T05:30:22.478Z,102028.67
2018-04-20T05:32:50.867Z,102030.41
2018-04-20T05:35:19.983Z,102027.15
2018-04-20T05:37:48.436Z,102030.28
2018-04-20T05:40:16.963Z,102035.84
2018-04-20T05:42:45.705Z,102028.92
2018-04-20T05:45:14.125Z,102025.83
2018-04-20T05:47:42.853Z,102030.52
2018-04-20T05:50:11.417Z,102027.13
2018-04-20T05:52:40.176Z,102029.39
2018-04-20T05:55:09.483Z,102024.63
2018-04-20T05:57:38.711Z,102018.22
2018-04-20T06:00:07.636Z,102014.24
2018-04-20T06:02:36.101Z,102009.92
2018-04-20T06:05:05.363Z,102006.73
2018-04-20T06:07:33.847Z,102002.64
2018-04-20T06:10:02.313Z,102001.17
2018-04-20T06:12:30.704Z,102001.52
2018-04-20T06:14:59.150Z,101995.83
2018-04-20T06:17:27.522Z,101996.23
2018-04-20T06:19:56.110Z,101992.50
2018-04-20T06:22:27.864Z,101989.72
2018-04-20T06:24:56.287Z,101987.65
2018-04-20T06:27:24.784Z,101984.50
2018-04-20T06:29:53.170Z,101984.62
2018-04-20T06:32:21.592Z,101979.25
2018-04-20T06:34:49.988Z,101976.05
2018-04-20T06:37:18.403Z,101979.39
2018-04-20T06:39:46.800Z,101976.98
2018-04-20T06:42:15.238Z,101973.42
2018-04-20T06:44:43.628Z,101966.35
2018-04-20T06:47:12.302Z,101963.73
2018-04-20T06:49:41.736Z,101957.34
2018-04-20T06:52:10.154Z,101952.30
2018-04-20T06:54:38.579Z,101949.62
2018-04-20T06:57:07.219Z,101945.13
2018-04-20T06:59:35.865Z,101953.19
2018-04-20T07:02:04.236Z,101944.47
2018-04-20T07:04:32.963Z,101942.92
2018-04-20T07:07:01.316Z,101940.84
2018-04-20T07:09:29.703Z,101934.18
2018-04-20T07:11:58.130Z,101940.89
2018-04-20T07:14:26.477Z,101936.62
2018-04-20T07:16:54.859Z,101934.70
2018-04-20T07:19:23.906Z,101929.32
2018-04-20T07:21:52.509Z,101925.95
2018-04-20T07:24:21.977Z,101932.75
2018-04-20T07:26:51.291Z,101931.47
2018-04-20T07:29:20.488Z,101927.90
2018-04-20T07:31:49.021Z,101936.39
2018-04-20T07:34:18.477Z,101923.67
2018-04-20T07:36:47.049Z,101923.89
2018-04-20T07:39:15.586Z,101931.33
2018-04-20T07:41:44.120Z,101920.39
2018-04-20T07:44:12.750Z,101921.45
2018-04-20T07:46:41.242Z,101910.44
2018-04-20T07:49:09.808Z,101915.45
2018-04-20T07:51:38.297Z,101909.51
2018-04-20T07:54:06.882Z,101909.44
2018-04-20T07:56:37.245Z,101910.12
2018-04-20T07:59:05.839Z,101900.89
2018-04-20T08:01:34.483Z,101907.18
2018-04-20T08:04:04.603Z,101899.27
2018-04-20T08:06:33.280Z,101902.34
2018-04-20T08:09:01.660Z,101898.03
2018-04-20T08:11:30.085Z,101898.03
2018-04-20T08:13:59.091Z,101898.75
2018-04-20T08:16:27.508Z,101892.06
2018-04-20T08:18:56.852Z,101895.14
2018-04-20T08:21:25.888Z,101883.66
2018-04-20T08:23:54.748Z,101886.84
2018-04-20T08:26:23.195Z,101892.89
2018-04-20T08:28:51.670Z,101904.49
2018-04-20T08:31:20.074Z,101893.25
2018-04-20T08:33:48.525Z,101898.69
2018-04-20T08:36:16.944Z,101885.83
2018-04-20T08:38:45.578Z,101892.91
2018-04-20T08:41:15.111Z,101879.47
2018-04-20T08:43:44.596Z,101883.55
2018-04-20T08:46:13.286Z,101880.20
2018-04-20T08:48:41.819Z,101877.53
2018-04-20T08:51:10.371Z,101873.59
2018-04-20T08:53:39.197Z,101870.02
2018-04-20T08:56:07.732Z,101870.86
2018-04-20T08:58:36.357Z,101868.03
2018-04-20T09:01:04.810Z,101867.91
2018-04-20T09:03:33.607Z,101863.27
2018-04-20T09:06:02.017Z,101859.98
2018-04-20T09:08:30.371Z,101860.22
2018-04-20T09:10:59.739Z,101854.73
2018-04-20T09:13:28.114Z,101855.27
2018-04-20T09:15:56.500Z,101849.91
2018-04-20T09:18:25.325Z,101849.70
2018-04-20T09:20:53.832Z,101845.69
2018-04-20T09:23:22.234Z,101844.31
2018-04-20T09:25:50.626Z,101839.61
2018-04-20T09:28:19.007Z,101836.89
2018-04-20T09:30:47.407Z,101835.58
2018-04-20T09:33:15.816Z,101829.64
2018-04-20T09:35:44.183Z,101828.59
2018-04-20T09:38:12.650Z,101822.45
2018-04-20T09:40:41.674Z,101815.18
2018-04-20T09:43:10.114Z,101818.25
2018-04-20T09:45:39.068Z,101815.41
2018-04-20T09:48:07.646Z,101809.39
2018-04-20T09:50:36.125Z,101810.64
2018-04-20T09:53:05.022Z,101805.66
2018-04-20T09:55:33.716Z,101804.62
2018-04-20T09:58:02.206Z,101798.66
2018-04-20T10:00:37.169Z,101797.79
2018-04-20T10:03:07.662Z,101796.44
2018-04-20T10:05:36.379Z,101791.58
2018-04-20T10:08:05.170Z,101787.56
2018-04-20T10:10:33.528Z,101787.08
2018-04-20T10:13:06.673Z,101777.80
2018-04-20T10:15:36.537Z,101774.62
2018-04-20T10:18:05.121Z,101770.62
2018-04-20T10:20:33.497Z,101771.75
2018-04-20T10:23:02.615Z,101754.67
2018-04-20T10:25:31.199Z,101756.92
2018-04-20T10:27:59.620Z,101748.13
2018-04-20T10:30:28.676Z,101749.53
2018-04-20T10:32:57.046Z,101750.67
2018-04-20T10:35:25.423Z,101744.30
2018-04-20T10:37:54.094Z,101739.70
2018-04-20T10:40:23.043Z,101739.61
2018-04-20T10:42:51.474Z,101734.89
2018-04-20T10:45:20.774Z,101748.80
2018-04-20T10:47:49.208Z,101760.17
2018-04-20T10:50:17.644Z,101760.22
2018-04-20T10:52:46.015Z,101758.16
2018-04-20T10:55:14.406Z,101760.47
2018-04-20T10:57:43.275Z,101755.84
2018-04-20T11:00:11.794Z,101753.23
2018-04-20T11:02:40.224Z,101746.80
2018-04-20T11:05:08.595Z,101748.13
2018-04-20T11:07:37.032Z,101750.26
2018-04-20T11:10:05.508Z,101745.56
2018-04-20T11:12:33.888Z,101736.81
2018-04-20T11:15:02.714Z,101730.06
2018-04-20T11:17:31.454Z,101731.99
2018-04-20T11:20:00.549Z,101724.37
2018-04-20T11:22:29.384Z,101724.33
2018-04-20T11:24:57.928Z,101721.19
2018-04-20T11:27:26.580Z,101727.84
2018-04-20T11:29:55.539Z,101721.94
2018-04-20T11:32:24.434Z,101719.34
2018-04-20T11:34:52.919Z,101723.42
2018-04-20T11:37:21.363Z,101725.86
2018-04-20T11:39:49.980Z,101723.88
2018-04-20T11:42:18.414Z,101711.16
2018-04-20T11:44:46.928Z,101719.31
2018-04-20T11:47:15.847Z,101714.94
2018-04-20T11:49:44.980Z,101717.23
2018-04-20T11:52:13.439Z,101711.06
2018-04-20T11:54:41.808Z,101716.27
2018-04-20T11:57:10.158Z,101707.16
2018-04-20T11:59:38.702Z,101702.36
2018-04-20T12:02:07.180Z,101702.19
2018-04-20T12:04:35.558Z,101709.57
2018-04-20T12:07:04.354Z,101702.41
2018-04-20T12:09:33.111Z,101713.35
2018-04-20T12:12:01.533Z,101701.34
2018-04-20T12:14:30.106Z,101698.80
2018-04-20T12:16:58.490Z,101689.47
2018-04-20T12:19:26.893Z,101694.34
2018-04-20T12:21:56.053Z,101694.34
2018-04-20T12:24:24.835Z,101697.30
2018-04-20T12:26:53.287Z,101700.03
2018-04-20T12:29:22.347Z,101692.77
2018-04-20T12:31:51.043Z,101699.41
2018-04-20T12:34:19.617Z,101695.16
2018-04-20T12:36:48.104Z,101691.04
2018-04-20T12:39:16.482Z,101679.43
2018-04-20T12:41:44.851Z,101685.91
2018-04-20T12:44:14.199Z,101686.67
2018-04-20T12:46:42.538Z,101677.13
2018-04-20T12:49:10.912Z,101673.48
2018-04-20T12:51:40.077Z,101673.26
2018-04-20T12:54:08.474Z,101681.12
2018-04-20T12:56:36.887Z,101671.78
2018-04-20T12:59:05.415Z,101672.67
2018-04-20T13:01:33.768Z,101666.58
2018-04-20T13:04:02.216Z,101649.66
2018-04-20T13:06:30.700Z,101662.00
2018-04-20T13:08:59.185Z,101658.95
2018-04-20T13:11:27.916Z,101658.73
2018-04-20T13:13:56.404Z,101662.88
2018-04-20T13:16:25.034Z,101662.61
2018-04-20T13:18:53.424Z,101653.02
2018-04-20T13:21:22.706Z,101653.16
2018-04-20T13:23:51.080Z,101652.14
2018-04-20T13:26:19.506Z,101660.37
2018-04-20T13:28:49.862Z,101655.05
2018-04-20T13:31:18.382Z,101652.64
2018-04-20T13:33:46.735Z,101651.20
2018-04-20T13:36:15.657Z,101657.45
2018-04-20T13:38:44.029Z,101663.80
2018-04-20T13:41:12.667Z,101658.36
2018-04-20T13:43:41.052Z,101657.70
2018-04-20T13:46:09.526Z,101655.46
2018-04-20T13:48:38.632Z,101646.56
2018-04-20T13:51:07.554Z,101652.91
2018-04-20T13:53:35.942Z,101658.92
2018-04-20T13:56:04.923Z,101659.14
2018-04-20T13:58:33.565Z,101656.34
2018-04-20T14:01:02.196Z,101652.70
2018-04-20T14:03:30.704Z,101654.39
2018-04-20T14:05:59.160Z,101657.34
2018-04-20T14:08:27.592Z,101666.30
2018-04-20T14:10:56.565Z,101639.59
2018-04-20T14:13:25.376Z,101651.05
2018-04-20T14:15:54.724Z,101659.39
2018-04-20T14:18:23.305Z,101654.36
2018-04-20T14:20:51.798Z,101656.58
2018-04-20T14:23:20.331Z,101654.00
2018-04-20T14:25:48.677Z,101650.42
2018-04-20T14:28:17.875Z,101649.17
2018-04-20T14:30:46.397Z,101648.80
2018-04-20T14:33:14.787Z,101645.45
2018-04-20T14:35:43.418Z,101646.73
2018-04-20T14:38:11.767Z,101646.28
2018-04-20T14:40:40.141Z,101647.96
2018-04-20T14:43:09.461Z,101648.72
2018-04-20T14:45:37.897Z,101645.00
2018-04-20T14:48:06.272Z,101632.28
2018-04-20T14:50:35.081Z,101629.00
2018-04-20T14:53:03.511Z,101647.13
2018-04-20T14:55:32.068Z,101642.88
2018-04-20T14:58:01.413Z,101645.62
2018-04-20T15:00:29.896Z,101649.98
2018-04-20T15:02:58.326Z,101639.31
2018-04-20T15:05:26.817Z,101638.98
2018-04-20T15:07:55.215Z,101649.10
2018-04-20T15:10:23.792Z,101647.77
2018-04-20T15:12:53.149Z,101638.97
2018-04-20T15:15:21.508Z,101635.35
2018-04-20T15:17:49.908Z,101650.41
2018-04-20T15:20:18.883Z,101648.05
2018-04-20T15:22:47.269Z,101645.94
2018-04-20T15:25:16.519Z,101645.53
2018-04-20T15:27:44.932Z,101653.36
2018-04-20T15:30:13.365Z,101654.01
2018-04-20T15:32:41.755Z,101648.61
2018-04-20T15:35:10.140Z,101655.28
2018-04-20T15:37:38.505Z,101647.11
2018-04-20T15:40:06.861Z,101659.69
2018-04-20T15:42:35.956Z,101638.45
2018-04-20T15:45:04.391Z,101653.73
2018-04-20T15:47:34.747Z,101656.81
2018-04-20T15:50:03.841Z,101647.14
2018-04-20T15:52:32.277Z,101649.03
2018-04-20T15:55:00.742Z,101647.69
2018-04-20T15:57:29.283Z,101647.88
2018-04-20T15:59:57.734Z,101651.66
2018-04-20T16:02:26.104Z,101641.06
2018-04-20T16:04:54.598Z,101642.52
2018-04-20T16:07:23.098Z,101642.98
2018-04-20T16:09:51.490Z,101648.27
2018-04-20T16:12:19.910Z,101645.08
2018-04-20T16:14:48.987Z,101647.03
2018-04-20T16:17:17.362Z,101656.00
2018-04-20T16:19:45.764Z,101648.59
2018-04-20T16:22:14.242Z,101650.55
2018-04-20T16:24:42.721Z,101653.95
2018-04-20T16:27:11.818Z,101649.55
2018-04-20T16:29:40.196Z,101651.06
2018-04-20T16:32:08.615Z,101655.67
2018-04-20T16:34:37.309Z,101648.30
2018-04-20T16:37:05.908Z,101642.06
2018-04-20T16:39:34.287Z,101649.55
2018-04-20T16:42:03.056Z,101647.57
2018-04-20T16:44:31.646Z,101640.83
2018-04-20T16:47:00.153Z,101643.43
2018-04-20T16:49:29.073Z,101635.86
2018-04-20T16:51:57.794Z,101639.34
2018-04-20T16:54:26.706Z,101646.13
2018-04-20T16:56:55.726Z,101644.27
2018-04-20T16:59:25.104Z,101634.48
2018-04-20T17:01:54.021Z,101632.27
2018-04-20T17:04:23.596Z,101632.73
2018-04-20T17:06:52.080Z,101632.10
2018-04-20T17:09:20.545Z,101634.34
2018-04-20T17:11:49.899Z,101632.42
2018-04-20T17:14:18.287Z,101621.70
2018-04-20T17:16:46.738Z,101627.48
2018-04-20T17:19:15.293Z,101631.81
2018-04-20T17:21:43.680Z,101631.83
2018-04-20T17:24:12.376Z,101631.94
2018-04-20T17:26:42.399Z,101638.30
2018-04-20T17:29:10.975Z,101642.10
2018-04-20T17:31:39.443Z,101634.42
2018-04-20T17:34:08.836Z,101636.03
2018-04-20T17:36:38.222Z,101639.02
2018-04-20T17:39:06.728Z,101641.81
2018-04-20T17:41:35.704Z,101638.53
2018-04-20T17:44:04.698Z,101647.34
2018-04-20T17:46:33.578Z,101645.70
2018-04-20T17:49:02.598Z,101652.23
2018-04-20T17:51:31.160Z,101654.09
2018-04-20T17:53:59.850Z,101648.97
2018-04-20T17:56:28.330Z,101657.59
2018-04-20T17:58:56.759Z,101654.58
2018-04-20T18:01:25.325Z,101650.33
2018-04-20T18:03:54.691Z,101644.47
2018-04-20T18:06:23.373Z,101651.86
2018-04-20T18:08:51.791Z,101655.62
2018-04-20T18:11:20.265Z,101654.13
2018-04-20T18:13:48.632Z,101650.77
2018-04-20T18:16:17.024Z,101652.16
2018-04-20T18:18:45.443Z,101653.23
2018-04-20T18:21:14.480Z,101653.56
2018-04-20T18:23:42.913Z,101656.89
2018-04-20T18:26:11.355Z,101660.06
2018-04-20T18:28:39.967Z,101657.28
2018-04-20T18:31:08.625Z,101650.62
2018-04-20T18:33:37.124Z,101654.06
2018-04-20T18:36:05.604Z,101653.20
2018-04-20T18:38:33.988Z,101658.42
2018-04-20T18:41:02.487Z,101651.47
2018-04-20T18:43:31.017Z,101662.41
2018-04-20T18:45:59.617Z,101656.75
2018-04-20T18:48:28.794Z,101664.78
2018-04-20T18:50:57.230Z,101662.01
2018-04-20T18:53:25.691Z,101666.21
2018-04-20T18:55:54.624Z,101664.06
2018-04-20T18:58:23.090Z,101667.34
2018-04-20T19:00:52.073Z,101683.42
2018-04-20T19:03:20.929Z,101687.08
2018-04-20T19:05:49.409Z,101688.54
2018-04-20T19:08:17.795Z,101681.66
2018-04-20T19:10:46.554Z,101691.57
2018-04-20T19:13:16.891Z,101690.16
2018-04-20T19:15:45.267Z,101687.13
2018-04-20T19:18:14.893Z,101685.05
2018-04-20T19:20:43.312Z,101687.03
2018-04-20T19:23:11.781Z,101695.55
2018-04-20T19:25:40.214Z,101691.19
2018-04-20T19:28:08.639Z,101689.38
2018-04-20T19:30:37.030Z,101693.41
2018-04-20T19:33:05.557Z,101697.28
2018-04-20T19:35:34.149Z,101693.38
2018-04-20T19:38:02.653Z,101694.58
2018-04-20T19:40:31.313Z,101692.48
2018-04-20T19:42:59.808Z,101696.20
2018-04-20T19:45:28.277Z,101694.80
2018-04-20T19:47:57.164Z,101696.32
2018-04-20T19:50:25.701Z,101697.68
2018-04-20T19:52:54.348Z,101702.31
2018-04-20T19:55:22.925Z,101696.05
2018-04-20T19:57:51.306Z,101692.09
2018-04-20T20:00:19.714Z,101696.54
2018-04-20T20:02:48.263Z,101688.70
2018-04-20T20:05:16.647Z,101695.77
2018-04-20T20:07:45.961Z,101688.20
2018-04-20T20:10:15.486Z,101695.42
2018-04-20T20:12:43.874Z,101689.81
2018-04-20T20:15:12.343Z,101680.61
2018-04-20T20:17:40.724Z,101683.36
2018-04-20T20:20:09.177Z,101679.22
2018-04-20T20:22:37.621Z,101678.36
2018-04-20T20:25:06.616Z,101680.62
2018-04-20T20:27:35.024Z,101681.72
2018-04-20T20:30:03.557Z,101685.83
2018-04-20T20:32:32.354Z,101688.84
2018-04-20T20:35:01.671Z,101683.88
2018-04-20T20:37:31.000Z,101688.58
2018-04-20T20:39:59.412Z,101689.45
2018-04-20T20:42:27.890Z,101684.30
2018-04-20T20:44:56.397Z,101681.79
2018-04-20T20:47:25.701Z,101683.58
2018-04-20T20:49:54.783Z,101680.69
2018-04-20T20:52:23.489Z,101681.06
2018-04-20T20:54:51.993Z,101678.81
2018-04-20T20:57:20.351Z,101684.36
2018-04-20T20:59:48.840Z,101678.78
2018-04-20T21:02:17.256Z,101674.75
2018-04-20T21:04:45.632Z,101675.44
2018-04-20T21:07:14.164Z,101670.53
2018-04-20T21:09:42.749Z,101677.99
2018-04-20T21:12:11.202Z,101668.27
2018-04-20T21:14:39.653Z,101668.47
2018-04-20T21:17:08.967Z,101677.08
2018-04-20T21:19:37.423Z,101678.71
2018-04-20T21:22:06.217Z,101678.14
2018-04-20T21:24:34.985Z,101686.34
2018-04-20T21:27:03.368Z,101681.94
2018-04-20T21:29:31.974Z,101672.94
2018-04-20T21:32:01.175Z,101679.77
2018-04-20T21:34:29.902Z,101678.48
2018-04-20T21:36:58.554Z,101685.80
2018-04-20T21:39:27.361Z,101679.16
2018-04-20T21:41:56.396Z,101683.52
2018-04-20T21:44:25.071Z,101675.17
2018-04-20T21:46:53.771Z,101680.28
2018-04-20T21:49:22.236Z,101675.51
2018-04-20T21:51:51.620Z,101678.88
2018-04-20T21:54:20.047Z,101678.45
2018-04-20T21:56:48.500Z,101674.66
2018-04-20T21:59:16.906Z,101679.59
2018-04-20T22:01:46.199Z,101679.17
2018-04-20T22:04:14.775Z,101675.81
2018-04-20T22:06:43.196Z,101683.35
2018-04-20T22:09:11.813Z,101684.20
2018-04-20T22:11:40.355Z,101684.91
2018-04-20T22:14:08.760Z,101688.41
2018-04-20T22:16:37.574Z,101679.73
2018-04-20T22:19:06.008Z,101678.72
2018-04-20T22:21:34.436Z,101681.34
2018-04-20T22:24:04.329Z,101683.38
2018-04-20T22:26:33.117Z,101687.92
2018-04-20T22:29:01.670Z,101686.58
2018-04-20T22:31:30.203Z,101691.95
2018-04-20T22:33:58.743Z,101687.39
2018-04-20T22:36:27.429Z,101691.55
2018-04-20T22:38:56.018Z,101689.13
2018-04-20T22:41:24.574Z,101696.38
2018-04-20T22:43:53.168Z,101686.77
2018-04-20T22:46:21.979Z,101697.53
2018-04-20T22:48:50.553Z,101698.28
2018-04-20T22:51:18.984Z,101696.03
2018-04-20T22:53:47.882Z,101700.75
2018-04-20T22:56:16.302Z,101700.38
2018-04-20T22:58:44.690Z,101697.21
2018-04-20T23:01:13.510Z,101706.30
2018-04-20T23:03:41.936Z,101708.73
2018-04-20T23:06:10.477Z,101707.23
2018-04-20T23:08:39.061Z,101707.55
2018-04-20T23:11:07.531Z,101714.73
2018-04-20T23:13:35.994Z,101701.64
2018-04-20T23:16:04.711Z,101701.80
2018-04-20T23:18:33.136Z,101710.23
2018-04-20T23:21:01.745Z,101709.97
2018-04-20T23:23:30.995Z,101707.24
2018-04-20T23:25:59.936Z,101704.11
2018-04-20T23:28:28.382Z,101704.75
2018-04-20T23:30:57.175Z,101695.94
2018-04-20T23:33:25.740Z,101707.36
2018-04-20T23:35:54.524Z,101711.70
2018-04-20T23:38:23.112Z,101702.59
2018-04-20T23:40:51.526Z,101709.61
2018-04-20T23:43:19.907Z,101703.98
2018-04-20T23:45:48.338Z,101703.06
2018-04-20T23:48:16.736Z,101708.68
2018-04-20T23:50:45.168Z,101706.86
2018-04-20T23:53:13.953Z,101710.04
2018-04-20T23:55:42.367Z,101711.02
2018-04-20T23:58:10.909Z,101707.84
